createdAt,value
2022-09-12T00:01:08.000Z,94756.91
2022-09-12T00:03:35.412Z,94764.13
2022-09-12T00:06:08.214Z,94753.28
2022-09-12T00:08:35.228Z,94759.88
2022-09-12T00:11:07.636Z,94763.84
2022-09-12T00:13:39.531Z,94761.22
2022-09-12T00:16:21.294Z,94768.28
2022-09-12T00:18:48.943Z,94768.44
2022-09-12T00:21:18.262Z,94765.97
2022-09-12T00:23:45.886Z,94776.97
2022-09-12T00:26:13.685Z,94763.84
2022-09-12T00:28:41.484Z,94767.09
2022-09-12T00:31:18.879Z,94774.81
2022-09-12T00:33:46.053Z,94766.16
2022-09-12T00:36:17.311Z,94767.47
2022-09-12T00:38:45.714Z,94769.75
2022-09-12T00:41:33.408Z,94754.97
2022-09-12T00:44:12.674Z,94761.53
2022-09-12T00:47:15.765Z,94771.25
2022-09-12T00:50:13.984Z,94763.00
2022-09-12T00:52:48.112Z,94751.63
2022-09-12T00:55:23.933Z,94747.88
2022-09-12T00:58:05.037Z,94747.38
2022-09-12T01:00:32.439Z,94747.03
2022-09-12T01:03:06.185Z,94744.41
2022-09-12T01:05:37.846Z,94725.03
2022-09-12T01:08:06.073Z,94728.31
2022-09-12T01:10:35.898Z,94734.53
2022-09-12T01:13:07.245Z,94733.22
2022-09-12T01:15:35.069Z,94726.81
2022-09-12T01:18:19.154Z,94723.72
2022-09-12T01:21:16.430Z,94723.38
2022-09-12T01:23:54.950Z,94726.63
2022-09-12T01:26:57.779Z,94718.75
2022-09-12T01:29:45.520Z,94722.72
2022-09-12T01:32:47.025Z,94728.31
2022-09-12T01:35:28.576Z,94720.22
2022-09-12T01:38:17.773Z,94715.78
2022-09-12T01:41:22.930Z,94722.72
2022-09-12T01:44:01.761Z,94720.88
2022-09-12T01:46:41.807Z,94722.66
2022-09-12T01:49:32.974Z,94702.75
2022-09-12T01:52:11.364Z,94708.81
2022-09-12T01:54:48.189Z,94699.19
2022-09-12T01:57:25.731Z,94699.66
2022-09-12T02:00:01.200Z,94693.56
2022-09-12T02:02:49.145Z,94693.72
2022-09-12T02:05:39.389Z,94694.72
2022-09-12T02:08:15.674Z,94685.38
2022-09-12T02:11:10.674Z,94684.75
2022-09-12T02:13:56.897Z,94684.59
2022-09-12T02:16:36.701Z,94685.84
2022-09-12T02:19:19.561Z,94683.91
2022-09-12T02:21:55.496Z,94682.28
2022-09-12T02:24:44.219Z,94665.22
2022-09-12T02:27:49.540Z,94669.44
2022-09-12T02:30:17.733Z,94676.88
2022-09-12T02:33:07.019Z,94669.81
2022-09-12T02:35:47.357Z,94684.75
2022-09-12T02:38:28.451Z,94674.09
2022-09-12T02:40:55.266Z,94680.13
2022-09-12T02:43:22.022Z,94662.34
2022-09-12T02:45:48.954Z,94664.38
2022-09-12T02:48:29.338Z,94673.06
2022-09-12T02:50:56.528Z,94664.50
2022-09-12T02:53:25.920Z,94667.13
2022-09-12T02:55:53.195Z,94663.00
2022-09-12T02:58:26.501Z,94670.09
2022-09-12T03:01:23.160Z,94663.50
2022-09-12T03:04:34.871Z,94661.69
2022-09-12T03:07:20.006Z,94660.88
2022-09-12T03:10:03.828Z,94653.66
2022-09-12T03:12:46.669Z,94660.22
2022-09-12T03:15:42.249Z,94661.03
2022-09-12T03:18:34.886Z,94648.09
2022-09-12T03:21:27.598Z,94658.59
2022-09-12T03:24:18.742Z,94653.28
2022-09-12T03:26:56.581Z,94650.34
2022-09-12T03:29:26.274Z,94657.06
2022-09-12T03:31:58.264Z,94659.53
2022-09-12T03:34:27.815Z,94655.63
2022-09-12T03:36:55.626Z,94655.59
2022-09-12T03:39:24.552Z,94654.13
2022-09-12T03:41:51.909Z,94647.72
2022-09-12T03:44:19.804Z,94665.56
2022-09-12T03:46:46.572Z,94661.47
2022-09-12T03:49:13.665Z,94639.16
2022-09-12T03:51:40.898Z,94654.91
2022-09-12T03:54:07.680Z,94653.06
2022-09-12T03:56:35.347Z,94641.03
2022-09-12T03:59:05.361Z,94651.53
2022-09-12T04:01:32.326Z,94654.13
2022-09-12T04:03:59.089Z,94645.94
2022-09-12T04:06:25.813Z,94648.53
2022-09-12T04:08:54.854Z,94652.66
2022-09-12T04:11:22.916Z,94652.84
2022-09-12T04:13:50.061Z,94642.47
2022-09-12T04:16:18.107Z,94643.66
2022-09-12T04:18:46.209Z,94650.06
2022-09-12T04:21:17.625Z,94659.78
2022-09-12T04:23:45.070Z,94666.16
2022-09-12T04:26:13.888Z,94659.75
2022-09-12T04:28:41.743Z,94656.78
2022-09-12T04:31:20.805Z,94669.44
2022-09-12T04:33:47.554Z,94658.81
2022-09-12T04:36:17.793Z,94649.25
2022-09-12T04:38:46.991Z,94659.09
2022-09-12T04:41:18.247Z,94669.63
2022-09-12T04:43:48.675Z,94652.72
2022-09-12T04:46:20.095Z,94666.84
2022-09-12T04:48:47.902Z,94659.22
2022-09-12T04:51:21.155Z,94668.63
2022-09-12T04:53:51.989Z,94655.31
2022-09-12T04:56:20.764Z,94671.25
2022-09-12T04:58:48.875Z,94666.63
2022-09-12T05:01:21.276Z,94658.84
2022-09-12T05:03:50.006Z,94659.50
2022-09-12T05:06:20.835Z,94669.84
2022-09-12T05:08:48.077Z,94664.28
2022-09-12T05:11:22.798Z,94662.63
2022-09-12T05:13:52.053Z,94659.03
2022-09-12T05:16:20.930Z,94667.59
2022-09-12T05:18:49.128Z,94661.91
2022-09-12T05:21:19.457Z,94671.38
2022-09-12T05:23:50.419Z,94667.84
2022-09-12T05:26:18.518Z,94665.41
2022-09-12T05:28:45.253Z,94659.34
2022-09-12T05:31:14.830Z,94665.28
2022-09-12T05:33:44.074Z,94665.28
2022-09-12T05:36:19.784Z,94666.31
2022-09-12T05:38:47.766Z,94665.13
2022-09-12T05:41:24.665Z,94668.91
2022-09-12T05:43:57.718Z,94651.63
2022-09-12T05:46:29.474Z,94667.91
2022-09-12T05:48:57.445Z,94664.97
2022-09-12T05:51:35.260Z,94665.94
2022-09-12T05:54:04.794Z,94666.31
2022-09-12T05:56:34.488Z,94670.09
2022-09-12T05:59:04.803Z,94683.50
2022-09-12T06:01:34.056Z,94682.69
2022-09-12T06:04:05.435Z,94679.06
2022-09-12T06:06:37.186Z,94679.94
2022-09-12T06:09:05.311Z,94674.53
2022-09-12T06:11:34.742Z,94670.13
2022-09-12T06:14:02.109Z,94677.00
2022-09-12T06:16:33.208Z,94673.06
2022-09-12T06:19:04.709Z,94678.00
2022-09-12T06:21:31.478Z,94667.00
2022-09-12T06:23:59.092Z,94672.94
2022-09-12T06:26:27.145Z,94658.66
2022-09-12T06:28:56.745Z,94676.91
2022-09-12T06:31:27.955Z,94672.31
2022-09-12T06:33:56.201Z,94667.56
2022-09-12T06:36:29.607Z,94674.66
2022-09-12T06:39:04.226Z,94661.69
2022-09-12T06:41:32.486Z,94674.81
2022-09-12T06:44:00.613Z,94671.75
2022-09-12T06:46:28.408Z,94663.03
2022-09-12T06:49:00.702Z,94665.34
2022-09-12T06:51:29.095Z,94657.97
2022-09-12T06:53:57.647Z,94646.16
2022-09-12T06:56:27.429Z,94662.59
2022-09-12T06:58:57.621Z,94667.69
2022-09-12T07:01:28.013Z,94673.28
2022-09-12T07:04:00.759Z,94662.63
2022-09-12T07:06:33.654Z,94657.03
2022-09-12T07:09:03.544Z,94662.44
2022-09-12T07:11:36.761Z,94663.41
2022-09-12T07:14:06.512Z,94653.75
2022-09-12T07:16:36.679Z,94663.56
2022-09-12T07:19:06.427Z,94669.44
2022-09-12T07:21:33.289Z,94663.66
2022-09-12T07:24:00.043Z,94668.84
2022-09-12T07:26:29.139Z,94664.00
2022-09-12T07:29:18.720Z,94665.25
2022-09-12T07:31:45.469Z,94670.38
2022-09-12T07:34:12.205Z,94667.47
2022-09-12T07:36:39.291Z,94661.28
2022-09-12T07:39:06.215Z,94660.09
2022-09-12T07:41:36.119Z,94662.44
2022-09-12T07:44:04.595Z,94656.88
2022-09-12T07:46:31.682Z,94637.22
2022-09-12T07:49:00.823Z,94654.25
2022-09-12T07:51:30.283Z,94638.38
2022-09-12T07:53:57.737Z,94638.06
2022-09-12T07:56:29.698Z,94637.41
2022-09-12T07:58:57.538Z,94640.50
2022-09-12T08:01:24.986Z,94633.78
2022-09-12T08:03:58.102Z,94647.44
2022-09-12T08:06:25.538Z,94637.81
2022-09-12T08:08:55.621Z,94638.75
2022-09-12T08:11:23.845Z,94631.09
2022-09-12T08:13:55.315Z,94639.78
2022-09-12T08:16:27.392Z,94634.94
2022-09-12T08:18:54.634Z,94644.59
2022-09-12T08:21:24.804Z,94631.38
2022-09-12T08:24:04.113Z,94643.84
2022-09-12T08:26:32.846Z,94636.69
2022-09-12T08:28:59.982Z,94633.00
2022-09-12T08:31:28.397Z,94624.59
2022-09-12T08:33:56.874Z,94630.06
2022-09-12T08:36:26.810Z,94632.53
2022-09-12T08:39:04.940Z,94619.41
2022-09-12T08:41:46.201Z,94629.59
2022-09-12T08:45:03.451Z,94631.47
2022-09-12T08:47:39.133Z,94627.06
2022-09-12T08:50:08.750Z,94626.72
2022-09-12T08:53:14.786Z,94631.81
2022-09-12T08:55:59.261Z,94626.41
2022-09-12T08:58:29.063Z,94625.41
2022-09-12T09:01:07.568Z,94624.53
2022-09-12T09:04:14.193Z,94630.34
2022-09-12T09:07:26.014Z,94636.59
2022-09-12T09:10:12.558Z,94637.16
2022-09-12T09:13:39.892Z,94629.94
2022-09-12T09:16:21.577Z,94622.94
2022-09-12T09:18:49.651Z,94632.69
2022-09-12T09:21:39.941Z,94634.94
2022-09-12T09:24:12.166Z,94636.78
2022-09-12T09:26:44.467Z,94635.75
2022-09-12T09:29:24.077Z,94642.75
2022-09-12T09:31:56.070Z,94638.06
2022-09-12T09:34:27.004Z,94632.31
2022-09-12T09:37:05.910Z,94632.22
2022-09-12T09:40:10.037Z,94616.00
2022-09-12T09:42:59.185Z,94637.44
2022-09-12T09:45:29.258Z,94625.22
2022-09-12T09:48:16.849Z,94626.63
2022-09-12T09:50:44.142Z,94619.31
2022-09-12T09:53:46.389Z,94616.06
2022-09-12T09:56:48.538Z,94620.72
2022-09-12T09:59:29.839Z,94613.97
2022-09-12T10:02:23.643Z,94615.13
2022-09-12T10:04:57.589Z,94626.19
2022-09-12T10:07:25.429Z,94615.56
2022-09-12T10:10:13.504Z,94623.09
2022-09-12T10:12:40.731Z,94615.22
2022-09-12T10:15:26.638Z,94618.91
2022-09-12T10:17:55.845Z,94620.31
2022-09-12T10:20:43.001Z,94609.59
2022-09-12T10:23:37.557Z,94604.22
2022-09-12T10:26:11.721Z,94607.13
2022-09-12T10:28:43.492Z,94601.59
2022-09-12T10:31:28.995Z,94598.81
2022-09-12T10:34:00.169Z,94606.16
2022-09-12T10:36:37.605Z,94619.28
2022-09-12T10:39:05.641Z,94603.84
2022-09-12T10:41:41.066Z,94607.28
2022-09-12T10:44:15.921Z,94601.69
2022-09-12T10:46:42.823Z,94596.41
2022-09-12T10:49:38.142Z,94605.53
2022-09-12T10:52:25.045Z,94596.56
2022-09-12T10:54:52.549Z,94594.09
2022-09-12T10:57:31.150Z,94611.84
2022-09-12T11:00:17.958Z,94602.09
2022-09-12T11:03:16.180Z,94604.50
2022-09-12T11:06:01.585Z,94593.63
2022-09-12T11:09:17.631Z,94597.59
2022-09-12T11:11:59.728Z,94574.53
2022-09-12T11:14:44.344Z,94585.44
2022-09-12T11:17:34.016Z,94583.47
2022-09-12T11:20:23.837Z,94593.06
2022-09-12T11:23:11.020Z,94597.19
2022-09-12T11:26:07.317Z,94593.25
2022-09-12T11:29:00.793Z,94588.47
2022-09-12T11:31:52.819Z,94588.31
2022-09-12T11:34:58.390Z,94596.47
2022-09-12T11:37:30.552Z,94588.22
2022-09-12T11:40:23.172Z,94588.53
2022-09-12T11:42:54.897Z,94588.56
2022-09-12T11:45:37.332Z,94572.47
2022-09-12T11:48:12.663Z,94580.75
2022-09-12T11:50:39.395Z,94564.97
2022-09-12T11:53:23.322Z,94572.38
2022-09-12T11:56:04.398Z,94566.03
2022-09-12T11:58:31.566Z,94567.78
2022-09-12T12:01:16.125Z,94568.28
2022-09-12T12:03:46.411Z,94567.19
2022-09-12T12:06:22.005Z,94572.69
2022-09-12T12:08:50.735Z,94568.50
2022-09-12T12:11:34.191Z,94558.19
2022-09-12T12:14:23.474Z,94558.69
2022-09-12T12:16:50.990Z,94557.59
2022-09-12T12:19:17.631Z,94570.88
2022-09-12T12:21:50.389Z,94559.75
2022-09-12T12:24:24.347Z,94555.84
2022-09-12T12:26:53.517Z,94547.63
2022-09-12T12:29:20.221Z,94553.06
2022-09-12T12:32:08.022Z,94545.09
2022-09-12T12:34:42.428Z,94539.16
2022-09-12T12:37:29.792Z,94548.94
2022-09-12T12:40:04.662Z,94521.19
2022-09-12T12:42:34.421Z,94535.47
2022-09-12T12:45:09.938Z,94534.94
2022-09-12T12:47:36.565Z,94535.63
2022-09-12T12:50:21.202Z,94514.94
2022-09-12T12:52:54.769Z,94534.38
2022-09-12T12:55:42.536Z,94522.00
2022-09-12T12:58:33.188Z,94521.69
2022-09-12T13:01:19.400Z,94513.34
2022-09-12T13:04:02.158Z,94526.28
2022-09-12T13:06:38.119Z,94519.81
2022-09-12T13:09:09.964Z,94498.25
2022-09-12T13:11:39.403Z,94505.25
2022-09-12T13:14:42.527Z,94509.75
2022-09-12T13:17:22.827Z,94508.63
2022-09-12T13:20:00.767Z,94503.22
2022-09-12T13:22:46.246Z,94508.28
2022-09-12T13:25:31.045Z,94500.28
2022-09-12T13:28:12.789Z,94512.59
2022-09-12T13:30:56.334Z,94513.03
2022-09-12T13:33:47.746Z,94511.19
2022-09-12T13:36:44.341Z,94506.91
2022-09-12T13:39:44.723Z,94509.38
2022-09-12T13:42:34.681Z,94496.81
2022-09-12T13:45:20.669Z,94505.78
2022-09-12T13:47:54.282Z,94493.84
2022-09-12T13:50:31.961Z,94503.84
2022-09-12T13:53:05.476Z,94493.34
2022-09-12T13:55:38.384Z,94491.53
2022-09-12T13:58:06.859Z,94479.81
2022-09-12T14:00:35.170Z,94475.16
2022-09-12T14:03:43.338Z,94477.75
2022-09-12T14:06:11.007Z,94476.31
2022-09-12T14:08:41.649Z,94477.91
2022-09-12T14:11:20.514Z,94471.13
2022-09-12T14:13:48.305Z,94466.53
2022-09-12T14:16:17.162Z,94464.84
2022-09-12T14:18:48.142Z,94466.25
2022-09-12T14:21:36.569Z,94456.22
2022-09-12T14:24:07.036Z,94447.72
2022-09-12T14:26:36.832Z,94456.66
2022-09-12T14:29:08.006Z,94445.91
2022-09-12T14:31:37.979Z,94454.25
2022-09-12T14:34:16.306Z,94453.25
2022-09-12T14:36:48.545Z,94455.22
2022-09-12T14:39:41.592Z,94453.22
2022-09-12T14:42:22.794Z,94445.06
2022-09-12T14:44:58.533Z,94450.97
2022-09-12T14:47:28.630Z,94445.63
2022-09-12T14:49:55.437Z,94439.44
2022-09-12T14:52:30.990Z,94424.59
2022-09-12T14:55:20.179Z,94438.34
2022-09-12T14:57:47.991Z,94419.03
2022-09-12T15:00:20.970Z,94432.19
2022-09-12T15:02:49.886Z,94434.41
2022-09-12T15:05:22.297Z,94428.53
2022-09-12T15:08:02.780Z,94427.53
2022-09-12T15:10:36.687Z,94438.38
2022-09-12T15:13:04.750Z,94427.66
2022-09-12T15:15:32.676Z,94419.31
2022-09-12T15:18:01.420Z,94418.44
2022-09-12T15:20:32.770Z,94422.97
2022-09-12T15:22:59.509Z,94426.78
2022-09-12T15:25:26.504Z,94423.00
2022-09-12T15:27:56.051Z,94419.38
2022-09-12T15:30:22.810Z,94418.72
2022-09-12T15:32:49.539Z,94423.28
2022-09-12T15:35:23.718Z,94427.31
2022-09-12T15:37:50.949Z,94415.97
2022-09-12T15:40:20.907Z,94414.88
2022-09-12T15:42:47.710Z,94418.06
2022-09-12T15:45:21.879Z,94413.16
2022-09-12T15:47:48.666Z,94414.66
2022-09-12T15:50:15.472Z,94415.09
2022-09-12T15:52:42.808Z,94393.84
2022-09-12T15:55:22.181Z,94403.31
2022-09-12T15:57:49.719Z,94410.63
2022-09-12T16:00:18.122Z,94416.03
2022-09-12T16:02:47.342Z,94411.44
2022-09-12T16:05:22.026Z,94414.41
2022-09-12T16:07:53.049Z,94412.22
2022-09-12T16:10:24.823Z,94416.78
2022-09-12T16:12:51.812Z,94411.84
2022-09-12T16:15:22.030Z,94409.34
2022-09-12T16:17:49.857Z,94411.47
2022-09-12T16:20:17.449Z,94406.91
2022-09-12T16:22:44.238Z,94403.34
2022-09-12T16:25:11.065Z,94405.41
2022-09-12T16:27:38.163Z,94376.44
2022-09-12T16:30:07.548Z,94403.56
2022-09-12T16:32:34.435Z,94404.56
2022-09-12T16:35:01.250Z,94398.19
2022-09-12T16:37:28.571Z,94383.59
2022-09-12T16:39:55.736Z,94391.78
2022-09-12T16:42:23.059Z,94382.50
2022-09-12T16:44:49.793Z,94375.97
2022-09-12T16:47:16.675Z,94368.38
2022-09-12T16:49:43.454Z,94350.28
2022-09-12T16:52:12.708Z,94367.38
2022-09-12T16:54:39.721Z,94367.81
2022-09-12T16:57:06.749Z,94361.59
2022-09-12T16:59:33.643Z,94355.38
2022-09-12T17:02:00.427Z,94377.34
2022-09-12T17:04:27.433Z,94368.88
2022-09-12T17:06:54.162Z,94381.25
2022-09-12T17:09:22.089Z,94385.41
2022-09-12T17:11:50.300Z,94384.66
2022-09-12T17:14:17.275Z,94388.81
2022-09-12T17:16:51.521Z,94388.34
2022-09-12T17:19:30.005Z,94391.34
2022-09-12T17:21:58.010Z,94396.41
2022-09-12T17:24:25.697Z,94399.97
2022-09-12T17:26:53.672Z,94387.97
2022-09-12T17:29:21.002Z,94392.56
2022-09-12T17:31:48.242Z,94395.88
2022-09-12T17:34:16.359Z,94402.66
2022-09-12T17:36:44.728Z,94382.91
2022-09-12T17:39:13.246Z,94403.50
2022-09-12T17:41:42.947Z,94417.81
2022-09-12T17:44:14.298Z,94418.53
2022-09-12T17:46:42.571Z,94419.50
2022-09-12T17:49:14.397Z,94422.16
2022-09-12T17:51:41.974Z,94419.53
2022-09-12T17:54:14.108Z,94421.38
2022-09-12T17:56:41.145Z,94410.63
2022-09-12T17:59:13.629Z,94422.69
2022-09-12T18:01:59.233Z,94415.16
2022-09-12T18:04:27.211Z,94423.50
2022-09-12T18:06:54.334Z,94423.56
2022-09-12T18:09:24.929Z,94430.88
2022-09-12T18:11:53.116Z,94436.41
2022-09-12T18:14:20.689Z,94433.81
2022-09-12T18:16:48.310Z,94435.00
2022-09-12T18:19:16.107Z,94439.16
2022-09-12T18:21:43.145Z,94431.59
2022-09-12T18:24:10.775Z,94438.78
2022-09-12T18:26:38.100Z,94417.31
2022-09-12T18:29:04.923Z,94436.97
2022-09-12T18:31:31.892Z,94427.41
2022-09-12T18:34:02.729Z,94436.78
2022-09-12T18:36:30.747Z,94431.81
2022-09-12T18:38:59.162Z,94440.25
2022-09-12T18:41:27.006Z,94433.44
2022-09-12T18:43:59.037Z,94431.88
2022-09-12T18:46:28.561Z,94432.75
2022-09-12T18:48:58.105Z,94434.28
2022-09-12T18:51:33.623Z,94447.16
2022-09-12T18:54:06.300Z,94418.31
2022-09-12T18:56:37.697Z,94446.09
2022-09-12T18:59:06.947Z,94438.88
2022-09-12T19:01:37.037Z,94422.25
2022-09-12T19:04:05.112Z,94437.06
2022-09-12T19:06:44.601Z,94440.38
2022-09-12T19:09:14.189Z,94445.38
2022-09-12T19:11:48.813Z,94429.97
2022-09-12T19:14:18.496Z,94441.59
2022-09-12T19:16:45.731Z,94434.09
2022-09-12T19:19:12.426Z,94426.34
2022-09-12T19:21:39.141Z,94431.22
2022-09-12T19:24:11.334Z,94420.66
2022-09-12T19:26:39.211Z,94433.28
2022-09-12T19:29:07.175Z,94425.19
2022-09-12T19:31:34.595Z,94439.69
2022-09-12T19:34:07.956Z,94423.84
2022-09-12T19:36:50.723Z,94433.03
2022-09-12T19:39:19.757Z,94441.38
2022-09-12T19:41:47.554Z,94444.22
2022-09-12T19:44:14.399Z,94422.41
2022-09-12T19:46:41.147Z,94437.53
2022-09-12T19:49:09.370Z,94437.13
2022-09-12T19:51:36.076Z,94437.94
2022-09-12T19:54:03.087Z,94438.72
2022-09-12T19:56:29.891Z,94442.81
2022-09-12T19:58:57.023Z,94442.19
2022-09-12T20:01:30.769Z,94449.75
2022-09-12T20:03:58.737Z,94444.88
2022-09-12T20:06:26.542Z,94450.34
2022-09-12T20:08:54.179Z,94448.47
2022-09-12T20:11:23.548Z,94458.63
2022-09-12T20:13:50.742Z,94448.03
2022-09-12T20:16:22.752Z,94445.19
2022-09-12T20:19:02.527Z,94428.69
2022-09-12T20:21:32.261Z,94435.78
2022-09-12T20:24:10.023Z,94440.22
2022-09-12T20:26:37.102Z,94436.53
2022-09-12T20:29:05.580Z,94433.72
2022-09-12T20:31:33.571Z,94422.22
2022-09-12T20:34:00.648Z,94432.56
2022-09-12T20:36:27.620Z,94422.34
2022-09-12T20:38:58.055Z,94436.75
2022-09-12T20:41:26.700Z,94433.16
2022-09-12T20:43:55.629Z,94428.00
2022-09-12T20:46:24.493Z,94440.03
2022-09-12T20:48:52.115Z,94423.53
2022-09-12T20:51:21.073Z,94437.13
2022-09-12T20:53:48.747Z,94417.16
2022-09-12T20:56:15.658Z,94448.31
2022-09-12T20:58:44.433Z,94434.19
2022-09-12T21:01:13.406Z,94440.38
2022-09-12T21:03:42.062Z,94438.16
2022-09-12T21:06:10.264Z,94427.56
2022-09-12T21:08:37.540Z,94427.47
2022-09-12T21:11:05.658Z,94430.34
2022-09-12T21:13:32.958Z,94429.66
2022-09-12T21:16:21.087Z,94422.63
2022-09-12T21:18:53.953Z,94446.28
2022-09-12T21:21:22.557Z,94423.22
2022-09-12T21:23:50.926Z,94417.97
2022-09-12T21:26:18.416Z,94430.72
2022-09-12T21:28:45.162Z,94419.88
2022-09-12T21:31:12.090Z,94425.38
2022-09-12T21:33:38.910Z,94406.34
2022-09-12T21:36:07.154Z,94411.59
2022-09-12T21:38:34.702Z,94427.16
2022-09-12T21:41:13.886Z,94424.50
2022-09-12T21:43:41.082Z,94430.53
2022-09-12T21:46:08.539Z,94410.19
2022-09-12T21:48:36.442Z,94428.34
2022-09-12T21:51:04.283Z,94422.09
2022-09-12T21:53:32.001Z,94397.63
2022-09-12T21:56:07.541Z,94427.69
2022-09-12T21:58:35.651Z,94430.16
2022-09-12T22:01:02.985Z,94413.25
2022-09-12T22:03:30.111Z,94407.16
2022-09-12T22:05:59.259Z,94408.81
2022-09-12T22:08:26.810Z,94393.50
2022-09-12T22:10:56.967Z,94386.94
2022-09-12T22:13:24.235Z,94382.25
2022-09-12T22:15:52.147Z,94408.13
2022-09-12T22:18:19.293Z,94388.59
2022-09-12T22:20:46.337Z,94411.97
2022-09-12T22:23:32.209Z,94405.66
2022-09-12T22:26:01.480Z,94398.94
2022-09-12T22:28:29.889Z,94400.28
2022-09-12T22:30:56.929Z,94393.69
2022-09-12T22:33:23.718Z,94376.13
2022-09-12T22:35:50.455Z,94375.97
2022-09-12T22:38:17.221Z,94366.34
2022-09-12T22:40:44.070Z,94372.97
2022-09-12T22:43:12.020Z,94375.97
2022-09-12T22:45:42.025Z,94371.09
2022-09-12T22:48:09.420Z,94376.16
2022-09-12T22:50:36.341Z,94376.66
2022-09-12T22:53:03.091Z,94376.72
2022-09-12T22:55:29.915Z,94381.78
2022-09-12T22:57:56.656Z,94380.88
2022-09-12T23:00:23.867Z,94378.59
2022-09-12T23:02:50.655Z,94372.16
2022-09-12T23:05:17.453Z,94365.25
2022-09-12T23:07:44.282Z,94377.22
2022-09-12T23:10:11.137Z,94367.88
2022-09-12T23:12:37.940Z,94393.06
2022-09-12T23:15:05.703Z,94346.91
2022-09-12T23:17:34.675Z,94371.16
2022-09-12T23:20:02.730Z,94353.53
2022-09-12T23:22:29.497Z,94386.22
2022-09-12T23:24:56.277Z,94372.34
2022-09-12T23:27:23.311Z,94380.59
2022-09-12T23:29:52.455Z,94386.97
2022-09-12T23:32:20.261Z,94385.16
2022-09-12T23:34:48.471Z,94362.91
2022-09-12T23:37:15.782Z,94384.59
2022-09-12T23:39:42.808Z,94370.34
2022-09-12T23:42:09.642Z,94381.84
2022-09-12T23:44:36.354Z,94368.13
2022-09-12T23:47:03.316Z,94363.38
2022-09-12T23:49:30.333Z,94355.09
2022-09-12T23:51:57.091Z,94345.66
2022-09-12T23:54:25.146Z,94348.47
2022-09-12T23:56:52.215Z,94348.00
2022-09-12T23:59:19.030Z,94355.50
